<?xml version="1.0" encoding="UTF-8" standalone="no" ?>
<gpx xmlns="http://www.topografix.com/GPX/1/1" xmlns:xsi="http://www.w3.org/2001/XMLSchema-instance" xsi:schemaLocation="http://www.topografix.com/GPX/1/1 http://www.topografix.com/GPX/1/1/gpx.xsd" version="1.1" creator="VisuGPX - https://www.visugpx.com">
  <metadata>
    <name>Mont D\'or</name>
    <desc><![CDATA[balade facile vers le Mont d\'Or]]></desc>
  </metadata>
  <trk>
    <name><![CDATA[La randonnée des chalets sur le Mont d'Or]]></name>
    <trkseg>
      <trkpt lat="46.72869" lon="6.32129">
        <ele>1224</ele>
        <time>2015-07-09T11:22:30+02:00</time>
      </trkpt>
      <trkpt lat="46.72869" lon="6.32254">
        <ele>1221</ele>
        <time>2015-07-09T11:22:35+02:00</time>
      </trkpt>
      <trkpt lat="46.72865" lon="6.324">
        <ele>1224</ele>
        <time>2015-07-09T11:22:40+02:00</time>
      </trkpt>
      <trkpt lat="46.72836" lon="6.32536">
        <ele>1227</ele>
        <time>2015-07-09T11:22:45+02:00</time>
      </trkpt>
      <trkpt lat="46.72815" lon="6.32635">
        <ele>1229</ele>
        <time>2015-07-09T11:22:50+02:00</time>
      </trkpt>
      <trkpt lat="46.7284" lon="6.32781">
        <ele>1238</ele>
        <time>2015-07-09T11:22:55+02:00</time>
      </trkpt>
      <trkpt lat="46.72861" lon="6.32933">
        <ele>1248</ele>
        <time>2015-07-09T11:23:00+02:00</time>
      </trkpt>
      <trkpt lat="46.72865" lon="6.3311">
        <ele>1264</ele>
        <time>2015-07-09T11:23:05+02:00</time>
      </trkpt>
      <trkpt lat="46.72883" lon="6.33267">
        <ele>1280</ele>
        <time>2015-07-09T11:23:10+02:00</time>
      </trkpt>
      <trkpt lat="46.72883" lon="6.33408">
        <ele>1279</ele>
        <time>2015-07-09T11:23:15+02:00</time>
      </trkpt>
      <trkpt lat="46.72887" lon="6.33569">
        <ele>1279</ele>
        <time>2015-07-09T11:23:20+02:00</time>
      </trkpt>
      <trkpt lat="46.72972" lon="6.33709">
        <ele>1277</ele>
        <time>2015-07-09T11:23:25+02:00</time>
      </trkpt>
      <trkpt lat="46.72972" lon="6.33819">
        <ele>1286</ele>
        <time>2015-07-09T11:23:30+02:00</time>
      </trkpt>
      <trkpt lat="46.73044" lon="6.33986">
        <ele>1305</ele>
        <time>2015-07-09T11:23:35+02:00</time>
      </trkpt>
      <trkpt lat="46.73098" lon="6.34169">
        <ele>1309</ele>
        <time>2015-07-09T11:23:40+02:00</time>
      </trkpt>
      <trkpt lat="46.73152" lon="6.34351">
        <ele>1321</ele>
        <time>2015-07-09T11:23:45+02:00</time>
      </trkpt>
      <trkpt lat="46.73199" lon="6.34513">
        <ele>1327</ele>
        <time>2015-07-09T11:23:50+02:00</time>
      </trkpt>
      <trkpt lat="46.73271" lon="6.3468">
        <ele>1344</ele>
        <time>2015-07-09T11:23:55+02:00</time>
      </trkpt>
      <trkpt lat="46.73307" lon="6.3478">
        <ele>1359</ele>
        <time>2015-07-09T11:24:00+02:00</time>
      </trkpt>
      <trkpt lat="46.73307" lon="6.34915">
        <ele>1376</ele>
        <time>2015-07-09T11:24:05+02:00</time>
      </trkpt>
      <trkpt lat="46.7331" lon="6.35061">
        <ele>1390</ele>
        <time>2015-07-09T11:24:10+02:00</time>
      </trkpt>
      <trkpt lat="46.73375" lon="6.35213">
        <ele>1407</ele>
        <time>2015-07-09T11:24:15+02:00</time>
      </trkpt>
      <trkpt lat="46.73436" lon="6.35265">
        <ele>1411</ele>
        <time>2015-07-09T11:24:20+02:00</time>
      </trkpt>
      <trkpt lat="46.73472" lon="6.35291">
        <ele>1414</ele>
        <time>2015-07-09T11:24:25+02:00</time>
      </trkpt>
      <trkpt lat="46.73486" lon="6.35458">
        <ele>1426</ele>
        <time>2015-07-09T11:24:30+02:00</time>
      </trkpt>
      <trkpt lat="46.73332" lon="6.35677">
        <ele>1437</ele>
        <time>2015-07-09T11:24:35+02:00</time>
      </trkpt>
      <trkpt lat="46.73177" lon="6.35713">
        <ele>1419</ele>
        <time>2015-07-09T11:24:40+02:00</time>
      </trkpt>
      <trkpt lat="46.73066" lon="6.35729">
        <ele>1421</ele>
        <time>2015-07-09T11:24:45+02:00</time>
      </trkpt>
      <trkpt lat="46.72933" lon="6.35718">
        <ele>1434</ele>
        <time>2015-07-09T11:24:50+02:00</time>
      </trkpt>
      <trkpt lat="46.72821" lon="6.35739">
        <ele>1434</ele>
        <time>2015-07-09T11:24:55+02:00</time>
      </trkpt>
      <trkpt lat="46.72703" lon="6.35729">
        <ele>1438</ele>
        <time>2015-07-09T11:25:00+02:00</time>
      </trkpt>
      <trkpt lat="46.72606" lon="6.3575">
        <ele>1435</ele>
        <time>2015-07-09T11:25:05+02:00</time>
      </trkpt>
      <trkpt lat="46.72512" lon="6.35828">
        <ele>1409</ele>
        <time>2015-07-09T11:25:10+02:00</time>
      </trkpt>
      <trkpt lat="46.72412" lon="6.35896">
        <ele>1396</ele>
        <time>2015-07-09T11:25:15+02:00</time>
      </trkpt>
      <trkpt lat="46.72318" lon="6.3599">
        <ele>1385</ele>
        <time>2015-07-09T11:25:20+02:00</time>
      </trkpt>
      <trkpt lat="46.7221" lon="6.35932">
        <ele>1386</ele>
        <time>2015-07-09T11:25:25+02:00</time>
      </trkpt>
      <trkpt lat="46.72102" lon="6.35812">
        <ele>1376</ele>
        <time>2015-07-09T11:25:30+02:00</time>
      </trkpt>
      <trkpt lat="46.71984" lon="6.35708">
        <ele>1368</ele>
        <time>2015-07-09T11:25:35+02:00</time>
      </trkpt>
      <trkpt lat="46.71923" lon="6.35578">
        <ele>1354</ele>
        <time>2015-07-09T11:25:40+02:00</time>
      </trkpt>
      <trkpt lat="46.71833" lon="6.35363">
        <ele>1329</ele>
        <time>2015-07-09T11:25:45+02:00</time>
      </trkpt>
      <trkpt lat="46.71765" lon="6.35337">
        <ele>1328</ele>
        <time>2015-07-09T11:25:50+02:00</time>
      </trkpt>
      <trkpt lat="46.71743" lon="6.35108">
        <ele>1311</ele>
        <time>2015-07-09T11:25:55+02:00</time>
      </trkpt>
      <trkpt lat="46.71704" lon="6.34977">
        <ele>1304</ele>
        <time>2015-07-09T11:26:00+02:00</time>
      </trkpt>
      <trkpt lat="46.71646" lon="6.34841">
        <ele>1301</ele>
        <time>2015-07-09T11:26:05+02:00</time>
      </trkpt>
      <trkpt lat="46.71628" lon="6.34732">
        <ele>1298</ele>
        <time>2015-07-09T11:26:10+02:00</time>
      </trkpt>
      <trkpt lat="46.71581" lon="6.3457">
        <ele>1283</ele>
        <time>2015-07-09T11:26:15+02:00</time>
      </trkpt>
      <trkpt lat="46.71502" lon="6.34299">
        <ele>1259</ele>
        <time>2015-07-09T11:26:20+02:00</time>
      </trkpt>
      <trkpt lat="46.71466" lon="6.34126">
        <ele>1240</ele>
        <time>2015-07-09T11:26:25+02:00</time>
      </trkpt>
      <trkpt lat="46.71427" lon="6.33965">
        <ele>1219</ele>
        <time>2015-07-09T11:26:30+02:00</time>
      </trkpt>
      <trkpt lat="46.71413" lon="6.33844">
        <ele>1206</ele>
        <time>2015-07-09T11:26:35+02:00</time>
      </trkpt>
      <trkpt lat="46.71434" lon="6.3375">
        <ele>1199</ele>
        <time>2015-07-09T11:26:40+02:00</time>
      </trkpt>
      <trkpt lat="46.71414" lon="6.33635">
        <ele>1191</ele>
        <time>2015-07-09T11:26:45+02:00</time>
      </trkpt>
      <trkpt lat="46.71389" lon="6.3353">
        <ele>1189</ele>
        <time>2015-07-09T11:26:50+02:00</time>
      </trkpt>
      <trkpt lat="46.71325" lon="6.33457">
        <ele>1180</ele>
        <time>2015-07-09T11:26:55+02:00</time>
      </trkpt>
      <trkpt lat="46.7126" lon="6.33384">
        <ele>1169</ele>
        <time>2015-07-09T11:27:00+02:00</time>
      </trkpt>
      <trkpt lat="46.71181" lon="6.33332">
        <ele>1158</ele>
        <time>2015-07-09T11:27:05+02:00</time>
      </trkpt>
      <trkpt lat="46.71131" lon="6.33306">
        <ele>1153</ele>
        <time>2015-07-09T11:27:10+02:00</time>
      </trkpt>
      <trkpt lat="46.71148" lon="6.33227">
        <ele>1153</ele>
        <time>2015-07-09T11:27:15+02:00</time>
      </trkpt>
      <trkpt lat="46.71141" lon="6.33149">
        <ele>1154</ele>
        <time>2015-07-09T11:27:20+02:00</time>
      </trkpt>
      <trkpt lat="46.71113" lon="6.33092">
        <ele>1153</ele>
        <time>2015-07-09T11:27:25+02:00</time>
      </trkpt>
      <trkpt lat="46.71091" lon="6.32935">
        <ele>1159</ele>
        <time>2015-07-09T11:27:30+02:00</time>
      </trkpt>
      <trkpt lat="46.71041" lon="6.32841">
        <ele>1166</ele>
        <time>2015-07-09T11:27:35+02:00</time>
      </trkpt>
      <trkpt lat="46.70998" lon="6.32752">
        <ele>1169</ele>
        <time>2015-07-09T11:27:40+02:00</time>
      </trkpt>
      <trkpt lat="46.70987" lon="6.32575">
        <ele>1171</ele>
        <time>2015-07-09T11:27:45+02:00</time>
      </trkpt>
      <trkpt lat="46.71026" lon="6.32434">
        <ele>1179</ele>
        <time>2015-07-09T11:27:50+02:00</time>
      </trkpt>
      <trkpt lat="46.7103" lon="6.32413">
        <ele>1179</ele>
        <time>2015-07-09T11:27:55+02:00</time>
      </trkpt>
      <trkpt lat="46.71109" lon="6.3234">
        <ele>1186</ele>
        <time>2015-07-09T11:28:00+02:00</time>
      </trkpt>
      <trkpt lat="46.71138" lon="6.32304">
        <ele>1186</ele>
        <time>2015-07-09T11:28:05+02:00</time>
      </trkpt>
      <trkpt lat="46.71231" lon="6.32262">
        <ele>1196</ele>
        <time>2015-07-09T11:28:10+02:00</time>
      </trkpt>
      <trkpt lat="46.71371" lon="6.32189">
        <ele>1216</ele>
        <time>2015-07-09T11:28:15+02:00</time>
      </trkpt>
      <trkpt lat="46.71317" lon="6.32105">
        <ele>1207</ele>
        <time>2015-07-09T11:28:20+02:00</time>
      </trkpt>
      <trkpt lat="46.71271" lon="6.32032">
        <ele>1200</ele>
        <time>2015-07-09T11:28:25+02:00</time>
      </trkpt>
      <trkpt lat="46.71199" lon="6.3199">
        <ele>1189</ele>
        <time>2015-07-09T11:28:30+02:00</time>
      </trkpt>
      <trkpt lat="46.71163" lon="6.31922">
        <ele>1191</ele>
        <time>2015-07-09T11:28:35+02:00</time>
      </trkpt>
      <trkpt lat="46.71116" lon="6.31829">
        <ele>1189</ele>
        <time>2015-07-09T11:28:40+02:00</time>
      </trkpt>
      <trkpt lat="46.71113" lon="6.31776">
        <ele>1189</ele>
        <time>2015-07-09T11:28:45+02:00</time>
      </trkpt>
      <trkpt lat="46.71134" lon="6.31708">
        <ele>1190</ele>
        <time>2015-07-09T11:28:50+02:00</time>
      </trkpt>
      <trkpt lat="46.71206" lon="6.31682">
        <ele>1196</ele>
        <time>2015-07-09T11:28:55+02:00</time>
      </trkpt>
      <trkpt lat="46.71238" lon="6.31661">
        <ele>1198</ele>
        <time>2015-07-09T11:29:00+02:00</time>
      </trkpt>
      <trkpt lat="46.71267" lon="6.31517">
        <ele>1189</ele>
        <time>2015-07-09T11:29:05+02:00</time>
      </trkpt>
      <trkpt lat="46.71307" lon="6.31345">
        <ele>1198</ele>
        <time>2015-07-09T11:29:10+02:00</time>
      </trkpt>
      <trkpt lat="46.71343" lon="6.31219">
        <ele>1203</ele>
        <time>2015-07-09T11:29:15+02:00</time>
      </trkpt>
      <trkpt lat="46.71407" lon="6.31141">
        <ele>1205</ele>
        <time>2015-07-09T11:29:20+02:00</time>
      </trkpt>
      <trkpt lat="46.71472" lon="6.31078">
        <ele>1207</ele>
        <time>2015-07-09T11:29:25+02:00</time>
      </trkpt>
      <trkpt lat="46.71544" lon="6.31011">
        <ele>1210</ele>
        <time>2015-07-09T11:29:30+02:00</time>
      </trkpt>
      <trkpt lat="46.71608" lon="6.30932">
        <ele>1210</ele>
        <time>2015-07-09T11:29:35+02:00</time>
      </trkpt>
      <trkpt lat="46.71655" lon="6.3087">
        <ele>1211</ele>
        <time>2015-07-09T11:29:40+02:00</time>
      </trkpt>
      <trkpt lat="46.71702" lon="6.30823">
        <ele>1213</ele>
        <time>2015-07-09T11:29:45+02:00</time>
      </trkpt>
      <trkpt lat="46.7172" lon="6.3075">
        <ele>1212</ele>
        <time>2015-07-09T11:29:50+02:00</time>
      </trkpt>
      <trkpt lat="46.7172" lon="6.30723">
        <ele>1212</ele>
        <time>2015-07-09T11:29:55+02:00</time>
      </trkpt>
      <trkpt lat="46.71781" lon="6.30661">
        <ele>1215</ele>
        <time>2015-07-09T11:30:00+02:00</time>
      </trkpt>
      <trkpt lat="46.7181" lon="6.30515">
        <ele>1209</ele>
        <time>2015-07-09T11:30:05+02:00</time>
      </trkpt>
      <trkpt lat="46.71756" lon="6.30431">
        <ele>1211</ele>
        <time>2015-07-09T11:30:10+02:00</time>
      </trkpt>
      <trkpt lat="46.71705" lon="6.30389">
        <ele>1209</ele>
        <time>2015-07-09T11:30:15+02:00</time>
      </trkpt>
      <trkpt lat="46.71648" lon="6.30384">
        <ele>1206</ele>
        <time>2015-07-09T11:30:20+02:00</time>
      </trkpt>
      <trkpt lat="46.71605" lon="6.30322">
        <ele>1200</ele>
        <time>2015-07-09T11:30:25+02:00</time>
      </trkpt>
      <trkpt lat="46.71572" lon="6.30228">
        <ele>1199</ele>
        <time>2015-07-09T11:30:30+02:00</time>
      </trkpt>
      <trkpt lat="46.71587" lon="6.30144">
        <ele>1201</ele>
        <time>2015-07-09T11:30:35+02:00</time>
      </trkpt>
      <trkpt lat="46.71644" lon="6.30128">
        <ele>1204</ele>
        <time>2015-07-09T11:30:40+02:00</time>
      </trkpt>
      <trkpt lat="46.71691" lon="6.30076">
        <ele>1202</ele>
        <time>2015-07-09T11:30:45+02:00</time>
      </trkpt>
      <trkpt lat="46.71756" lon="6.30034">
        <ele>1193</ele>
        <time>2015-07-09T11:30:50+02:00</time>
      </trkpt>
      <trkpt lat="46.71799" lon="6.30071">
        <ele>1193</ele>
        <time>2015-07-09T11:30:55+02:00</time>
      </trkpt>
      <trkpt lat="46.71835" lon="6.30087">
        <ele>1190</ele>
        <time>2015-07-09T11:31:00+02:00</time>
      </trkpt>
      <trkpt lat="46.71874" lon="6.29993">
        <ele>1178</ele>
        <time>2015-07-09T11:31:05+02:00</time>
      </trkpt>
      <trkpt lat="46.71907" lon="6.2993">
        <ele>1175</ele>
        <time>2015-07-09T11:31:10+02:00</time>
      </trkpt>
      <trkpt lat="46.72047" lon="6.29935">
        <ele>1164</ele>
        <time>2015-07-09T11:31:15+02:00</time>
      </trkpt>
      <trkpt lat="46.72158" lon="6.29935">
        <ele>1161</ele>
        <time>2015-07-09T11:31:20+02:00</time>
      </trkpt>
      <trkpt lat="46.72295" lon="6.29914">
        <ele>1155</ele>
        <time>2015-07-09T11:31:25+02:00</time>
      </trkpt>
      <trkpt lat="46.72377" lon="6.29899">
        <ele>1150</ele>
        <time>2015-07-09T11:31:30+02:00</time>
      </trkpt>
      <trkpt lat="46.72474" lon="6.29862">
        <ele>1154</ele>
        <time>2015-07-09T11:31:35+02:00</time>
      </trkpt>
      <trkpt lat="46.72481" lon="6.2994">
        <ele>1153</ele>
        <time>2015-07-09T11:31:40+02:00</time>
      </trkpt>
      <trkpt lat="46.72481" lon="6.30097">
        <ele>1149</ele>
        <time>2015-07-09T11:31:45+02:00</time>
      </trkpt>
      <trkpt lat="46.72495" lon="6.30144">
        <ele>1148</ele>
        <time>2015-07-09T11:31:50+02:00</time>
      </trkpt>
      <trkpt lat="46.72445" lon="6.30295">
        <ele>1147</ele>
        <time>2015-07-09T11:31:55+02:00</time>
      </trkpt>
      <trkpt lat="46.72442" lon="6.30431">
        <ele>1153</ele>
        <time>2015-07-09T11:32:00+02:00</time>
      </trkpt>
      <trkpt lat="46.72416" lon="6.30603">
        <ele>1158</ele>
        <time>2015-07-09T11:32:05+02:00</time>
      </trkpt>
      <trkpt lat="46.72388" lon="6.30692">
        <ele>1163</ele>
        <time>2015-07-09T11:32:10+02:00</time>
      </trkpt>
      <trkpt lat="46.72481" lon="6.30776">
        <ele>1166</ele>
        <time>2015-07-09T11:32:15+02:00</time>
      </trkpt>
      <trkpt lat="46.72524" lon="6.30786">
        <ele>1169</ele>
        <time>2015-07-09T11:32:20+02:00</time>
      </trkpt>
      <trkpt lat="46.72539" lon="6.30979">
        <ele>1184</ele>
        <time>2015-07-09T11:32:25+02:00</time>
      </trkpt>
      <trkpt lat="46.72567" lon="6.31089">
        <ele>1193</ele>
        <time>2015-07-09T11:32:30+02:00</time>
      </trkpt>
      <trkpt lat="46.72632" lon="6.31219">
        <ele>1200</ele>
        <time>2015-07-09T11:32:35+02:00</time>
      </trkpt>
      <trkpt lat="46.72675" lon="6.31334">
        <ele>1204</ele>
        <time>2015-07-09T11:32:40+02:00</time>
      </trkpt>
      <trkpt lat="46.72697" lon="6.31491">
        <ele>1211</ele>
        <time>2015-07-09T11:32:45+02:00</time>
      </trkpt>
      <trkpt lat="46.72707" lon="6.31621">
        <ele>1218</ele>
        <time>2015-07-09T11:32:50+02:00</time>
      </trkpt>
      <trkpt lat="46.72733" lon="6.31773">
        <ele>1223</ele>
        <time>2015-07-09T11:32:55+02:00</time>
      </trkpt>
      <trkpt lat="46.72772" lon="6.31929">
        <ele>1229</ele>
        <time>2015-07-09T11:33:00+02:00</time>
      </trkpt>
      <trkpt lat="46.72826" lon="6.32055">
        <ele>1228</ele>
        <time>2015-07-09T11:33:05+02:00</time>
      </trkpt>
      <trkpt lat="46.72848" lon="6.32105">
        <ele>1226</ele>
        <time>2015-07-09T11:33:10+02:00</time>
      </trkpt>
    </trkseg>
  </trk>
</gpx>